Time;durP1;ratioP1;P1;durP2;ratioP2;P2;SDS_P1;SDS_P2;PMS_P1;PMS_P2;Temp;Humidity;BMP_temperature;BMP_pressure;BME280_temperature;BME280_humidity;BME280_pressure;Samples;Min_cycle;Max_cycle;Signal;HPM_P1;HPM_P2
2022/09/17 00:00:39;;;;;;;1.80;1.03;;;9.90;99.90;9.30;98569;;;;552336;255;25214;-80
2022/09/17 00:03:07;;;;;;;4.80;1.37;;;9.90;99.90;9.40;98559;;;;553149;255;24224;-82
2022/09/17 00:05:36;;;;;;;0.77;0.70;;;10.00;99.90;9.40;98562;;;;552978;255;24233;-81
2022/09/17 00:08:05;;;;;;;3.17;1.23;;;10.00;99.90;9.50;98566;;;;553032;255;24165;-83
2022/09/17 00:10:35;;;;;;;0.90;0.90;;;10.20;99.90;9.50;98566;;;;561020;248;24222;-78
2022/09/17 00:12:59;;;;;;;2.10;1.13;;;10.10;99.90;9.50;98569;;;;560873;251;24158;-83
2022/09/17 00:15:27;;;;;;;3.43;1.10;;;10.20;99.90;9.60;98580;;;;561478;255;24188;-80
2022/09/17 00:17:58;;;;;;;2.30;0.80;;;10.20;99.90;9.60;98575;;;;553180;255;24152;-82
2022/09/17 00:20:25;;;;;;;8.00;1.13;;;10.30;99.90;9.60;98576;;;;560769;255;24202;-79
2022/09/17 00:22:53;;;;;;;2.73;0.83;;;10.30;99.90;9.60;98577;;;;560689;253;24266;-79
2022/09/17 00:25:22;;;;;;;1.03;0.80;;;10.30;99.90;9.60;98576;;;;552736;255;24206;-80
2022/09/17 00:27:47;;;;;;;2.42;1.65;;;10.30;99.90;9.60;98574;;;;546511;256;35639;-80
2022/09/17 00:30:14;;;;;;;3.23;1.40;;;10.30;99.90;9.60;98577;;;;553016;255;24156;-77
2022/09/17 00:32:42;;;;;;;2.77;0.80;;;10.30;99.90;9.60;98583;;;;553612;253;24188;-83
2022/09/17 00:35:11;;;;;;;4.50;1.40;;;10.20;99.90;9.60;98577;;;;554198;255;24134;-80
2022/09/17 00:37:39;;;;;;;1.93;1.00;;;10.20;99.90;9.60;98579;;;;553519;250;24171;-78
2022/09/17 00:40:07;;;;;;;1.03;0.93;;;10.20;99.90;9.50;98575;;;;553555;255;24140;-76
2022/09/17 00:42:38;;;;;;;1.57;0.77;;;10.20;99.90;9.50;98583;;;;555233;254;24121;-76
2022/09/17 00:45:04;;;;;;;3.07;1.00;;;10.20;99.90;9.50;98575;;;;562103;251;24155;-76
2022/09/17 00:47:45;;;;;;;1.53;0.97;;;10.20;99.90;9.50;98589;;;;564744;250;24196;-75
2022/09/17 00:50:12;;;;;;;2.20;1.10;;;10.10;99.90;9.50;98579;;;;543716;259;24273;-77
2022/09/17 00:52:47;;;;;;;2.17;1.00;;;10.20;99.90;9.50;98585;;;;553664;252;24124;-76
2022/09/17 00:55:24;;;;;;;1.50;0.77;;;10.20;99.90;9.60;98593;;;;558338;254;24136;-76
2022/09/17 00:57:53;;;;;;;0.80;0.70;;;10.20;99.90;9.60;98595;;;;563462;251;24140;-76
2022/09/17 01:00:25;;;;;;;1.60;0.97;;;10.30;99.90;9.70;98600;;;;564623;255;24127;-76
2022/09/17 01:02:53;;;;;;;0.80;0.80;;;10.30;99.90;9.70;98598;;;;553497;255;24174;-79
2022/09/17 01:05:18;;;;;;;3.00;1.07;;;10.40;99.90;9.80;98606;;;;561675;248;24212;-77
2022/09/17 01:08:00;;;;;;;2.37;0.80;;;10.40;99.90;9.90;98602;;;;562113;255;24223;-76
2022/09/17 01:10:31;;;;;;;2.50;1.03;;;10.50;99.90;9.90;98611;;;;553442;253;24187;-77
2022/09/17 01:13:12;;;;;;;0.80;0.80;;;10.50;99.90;9.90;98600;;;;552699;255;24230;-77
2022/09/17 01:15:54;;;;;;;0.73;0.60;;;10.60;99.90;10.00;98598;;;;548911;255;24205;-76
2022/09/17 01:18:55;;;;;;;1.13;1.03;;;10.60;99.90;10.00;98611;;;;548237;256;24160;-77
2022/09/17 01:22:01;;;;;;;1.13;0.90;;;10.70;99.90;10.10;98608;;;;550283;255;24195;-76
2022/09/17 01:24:47;;;;;;;1.13;1.00;;;10.70;99.90;10.10;98594;;;;560346;252;24205;-81
2022/09/17 01:27:33;;;;;;;1.30;0.90;;;10.70;99.90;10.10;98581;;;;553970;250;24150;-76
2022/09/17 01:30:05;;;;;;;2.47;1.10;;;10.80;99.90;10.20;98583;;;;561940;255;24152;-79
2022/09/17 01:32:38;;;;;;;0.70;0.70;;;10.80;99.90;10.20;98590;;;;551489;255;24160;-78
2022/09/17 01:35:10;;;;;;;2.37;0.70;;;10.80;99.90;10.20;98590;;;;558213;254;24069;-76
2022/09/17 01:37:43;;;;;;;0.97;0.97;;;10.80;99.90;10.20;98590;;;;563228;251;24145;-77
2022/09/17 01:40:27;;;;;;;0.70;0.70;;;10.80;99.90;10.20;98587;;;;552779;255;24128;-77
2022/09/17 01:43:16;;;;;;;5.83;1.00;;;10.90;99.90;10.20;98589;;;;563544;254;24132;-76
2022/09/17 01:46:11;;;;;;;0.80;0.80;;;10.80;99.90;10.20;98587;;;;563296;250;24108;-76
2022/09/17 01:48:43;;;;;;;1.63;1.53;;;10.80;99.90;10.20;98590;;;;556221;255;24109;-75
2022/09/17 01:51:09;;;;;;;4.83;1.00;;;10.80;99.90;10.20;98582;;;;545277;259;24223;-76
2022/09/17 01:54:04;;;;;;;0.90;0.90;;;10.80;99.90;10.20;98579;;;;556112;254;24128;-75
2022/09/17 01:56:50;;;;;;;1.10;1.03;;;10.80;99.90;10.20;98576;;;;556910;252;24132;-78
2022/09/17 01:59:33;;;;;;;7.57;1.17;;;10.80;99.90;10.20;98575;;;;562690;251;24216;-78
2022/09/17 02:02:06;;;;;;;2.93;1.47;;;10.80;99.90;10.10;98582;;;;555285;255;24179;-77
2022/09/17 02:04:40;;;;;;;1.47;1.37;;;10.70;99.90;10.10;98574;;;;559116;252;24225;-76
2022/09/17 02:07:08;;;;;;;1.00;0.90;;;10.70;99.90;10.00;98577;;;;561601;251;24224;-77
2022/09/17 02:09:45;;;;;;;2.00;0.80;;;10.60;99.90;10.00;98584;;;;561118;251;24158;-78
2022/09/17 02:12:13;;;;;;;1.23;0.87;;;10.50;99.90;9.90;98577;;;;552768;255;24153;-76
2022/09/17 02:14:41;;;;;;;1.20;0.83;;;10.50;99.90;9.90;98579;;;;561264;251;24168;-77
2022/09/17 02:17:18;;;;;;;0.93;0.90;;;10.50;99.90;9.80;98589;;;;553583;255;24155;-79
2022/09/17 02:19:42;;;;;;;0.53;0.53;;;10.40;99.90;9.80;98599;;;;561554;255;24188;-78
2022/09/17 02:22:16;;;;;;;1.17;0.80;;;10.40;99.90;9.80;98593;;;;553753;255;24198;-76
2022/09/17 02:24:59;;;;;;;3.50;0.93;;;10.40;99.90;9.80;98588;;;;560323;253;24180;-80
2022/09/17 02:27:51;;;;;;;0.73;0.73;;;10.40;99.90;9.80;98579;;;;552959;255;24157;-77
2022/09/17 02:30:19;;;;;;;1.00;0.90;;;10.40;99.90;9.80;98573;;;;560562;255;24214;-79
2022/09/17 02:32:50;;;;;;;4.23;1.00;;;10.40;99.90;9.80;98572;;;;561035;255;24160;-80
2022/09/17 02:35:19;;;;;;;2.63;0.67;;;10.30;99.90;9.80;98583;;;;560795;255;24141;-77
2022/09/17 02:37:46;;;;;;;1.50;0.83;;;10.40;99.90;9.70;98584;;;;552966;255;24174;-77
2022/09/17 02:40:11;;;;;;;1.60;1.13;;;10.40;99.90;9.70;98581;;;;552840;255;26364;-78
2022/09/17 02:42:57;;;;;;;2.77;1.17;;;10.30;99.90;9.70;98586;;;;553683;255;24147;-80
2022/09/17 02:45:46;;;;;;;1.23;1.10;;;10.30;99.90;9.70;98590;;;;553395;255;24173;-79
2022/09/17 02:48:20;;;;;;;2.80;1.50;;;10.40;99.90;9.70;98598;;;;561109;255;24198;-77
2022/09/17 02:51:23;;;;;;;2.63;1.33;;;10.30;99.90;9.70;98607;;;;553565;255;24189;-77
2022/09/17 02:54:16;;;;;;;3.80;1.13;;;10.30;99.90;9.70;98605;;;;548427;255;24150;-78
2022/09/17 02:56:50;;;;;;;2.37;1.20;;;10.20;99.90;9.70;98602;;;;553986;254;24189;-77
2022/09/17 02:59:29;;;;;;;1.00;0.90;;;10.30;99.90;9.70;98606;;;;556493;254;24300;-77
2022/09/17 03:02:03;;;;;;;1.33;0.90;;;10.30;99.90;9.70;98596;;;;554278;255;24155;-76
2022/09/17 03:04:31;;;;;;;1.33;1.23;;;10.30;99.90;9.70;98595;;;;554119;255;24163;-78
2022/09/17 03:06:58;;;;;;;1.37;0.90;;;10.30;99.90;9.70;98591;;;;561577;253;24215;-77
2022/09/17 03:09:24;;;;;;;3.40;0.87;;;10.30;99.90;9.70;98599;;;;554420;255;24156;-80
2022/09/17 03:11:51;;;;;;;1.80;0.90;;;10.30;99.90;9.70;98597;;;;554562;255;24147;-74
2022/09/17 03:14:22;;;;;;;2.93;1.13;;;10.20;99.90;9.70;98590;;;;552928;258;24207;-77
2022/09/17 03:16:50;;;;;;;3.47;1.00;;;10.20;99.90;9.70;98594;;;;561595;255;24160;-76
2022/09/17 03:19:18;;;;;;;3.27;1.30;;;10.20;99.90;9.70;98595;;;;560726;255;24137;-76
2022/09/17 03:21:46;;;;;;;1.03;0.90;;;10.20;99.90;9.60;98594;;;;553145;255;24218;-76
2022/09/17 03:24:13;;;;;;;1.00;0.90;;;10.30;99.90;9.70;98594;;;;560809;255;24144;-77
2022/09/17 03:26:41;;;;;;;1.10;1.10;;;10.20;99.90;9.70;98590;;;;553310;255;24170;-76
2022/09/17 03:29:09;;;;;;;0.80;0.80;;;10.20;99.90;9.70;98591;;;;553327;255;24162;-77
2022/09/17 03:31:37;;;;;;;0.87;0.87;;;10.20;99.90;9.70;98594;;;;553288;255;24216;-76
2022/09/17 03:34:06;;;;;;;1.47;0.93;;;10.30;99.90;9.70;98586;;;;552945;255;28523;-77
2022/09/17 03:36:33;;;;;;;2.20;0.90;;;10.20;99.90;9.70;98597;;;;553218;255;24194;-77
2022/09/17 03:39:01;;;;;;;1.07;0.97;;;10.30;99.90;9.60;98592;;;;560809;252;24146;-77
2022/09/17 03:41:29;;;;;;;3.73;1.37;;;10.20;99.90;9.60;98592;;;;548557;255;35579;-77
2022/09/17 03:43:57;;;;;;;3.33;0.80;;;10.20;99.90;9.50;98583;;;;553549;255;24214;-77
2022/09/17 03:46:26;;;;;;;1.70;0.63;;;10.10;99.90;9.50;98601;;;;552763;255;24148;-77
2022/09/17 03:48:55;;;;;;;2.07;0.67;;;9.90;99.90;9.40;98609;;;;552981;255;24188;-76
2022/09/17 03:51:25;;;;;;;0.73;0.57;;;9.90;99.90;9.30;98611;;;;553142;254;24151;-76
2022/09/17 03:53:54;;;;;;;2.10;0.90;;;9.90;99.90;9.20;98609;;;;560938;251;24159;-76
2022/09/17 03:56:26;;;;;;;0.67;0.67;;;9.80;99.90;9.10;98611;;;;560347;252;24166;-76
2022/09/17 03:58:51;;;;;;;1.23;0.80;;;9.70;99.90;9.00;98609;;;;552334;255;25208;-76
2022/09/17 04:01:19;;;;;;;1.23;0.90;;;9.60;99.90;9.00;98608;;;;560687;255;24151;-76
2022/09/17 04:03:47;;;;;;;0.63;0.63;;;9.60;99.90;8.90;98610;;;;561245;253;24168;-76
2022/09/17 04:06:15;;;;;;;4.70;1.10;;;9.50;99.90;8.80;98606;;;;560970;255;24168;-77
2022/09/17 04:08:43;;;;;;;1.73;0.67;;;9.40;99.90;8.70;98606;;;;562789;254;24186;-78
2022/09/17 04:11:11;;;;;;;1.70;0.90;;;9.30;99.90;8.70;98609;;;;562586;251;24197;-77
2022/09/17 04:13:39;;;;;;;5.53;0.97;;;9.20;99.90;8.60;98612;;;;562588;248;24163;-76
2022/09/17 04:16:06;;;;;;;1.13;0.90;;;9.20;99.90;8.60;98615;;;;554891;248;24314;-77
2022/09/17 04:18:34;;;;;;;0.77;0.77;;;9.20;99.90;8.60;98608;;;;554547;253;24209;-76
2022/09/17 04:21:05;;;;;;;0.80;0.80;;;9.10;99.90;8.50;98606;;;;562215;248;24117;-76
2022/09/17 04:23:30;;;;;;;4.70;1.07;;;9.10;99.90;8.50;98617;;;;562551;252;24168;-79
2022/09/17 04:25:58;;;;;;;1.40;0.97;;;9.10;99.90;8.50;98613;;;;562266;255;24127;-77
2022/09/17 04:28:26;;;;;;;2.00;1.03;;;9.10;99.90;8.50;98605;;;;561991;248;24181;-77
2022/09/17 04:30:54;;;;;;;1.20;1.20;;;9.10;99.90;8.50;98601;;;;561835;255;24150;-78
2022/09/17 04:33:22;;;;;;;4.23;1.20;;;9.00;99.90;8.50;98609;;;;562098;252;24122;-79
2022/09/17 04:35:51;;;;;;;1.20;1.10;;;9.00;99.90;8.50;98613;;;;554438;254;24122;-78
2022/09/17 04:38:24;;;;;;;2.63;1.53;;;9.10;99.90;8.60;98616;;;;561910;251;24201;-80
2022/09/17 04:40:56;;;;;;;1.63;1.10;;;9.10;99.90;8.60;98618;;;;554427;254;24135;-77
2022/09/17 04:43:23;;;;;;;3.00;1.43;;;9.10;99.90;8.60;98618;;;;556487;253;24144;-80
2022/09/17 04:45:52;;;;;;;4.73;1.50;;;9.20;99.90;8.70;98617;;;;553999;255;24206;-80
2022/09/17 04:48:20;;;;;;;1.57;1.50;;;9.20;99.90;8.70;98618;;;;561997;255;24141;-78
2022/09/17 04:50:52;;;;;;;2.33;1.90;;;9.30;99.90;8.80;98624;;;;561713;248;24185;-78
2022/09/17 04:53:19;;;;;;;2.93;1.67;;;9.40;99.90;8.90;98619;;;;554137;255;24179;-78
2022/09/17 04:55:47;;;;;;;2.30;2.10;;;9.50;99.90;9.00;98618;;;;554479;252;24172;-77
2022/09/17 04:58:15;;;;;;;2.23;1.90;;;9.50;99.90;9.00;98623;;;;560886;255;24149;-77
2022/09/17 05:00:43;;;;;;;2.60;1.70;;;9.60;99.90;9.10;98620;;;;560532;255;24212;-77
2022/09/17 05:03:12;;;;;;;1.90;1.80;;;9.70;99.90;9.10;98625;;;;560391;253;25260;-77
2022/09/17 05:05:40;;;;;;;2.07;1.70;;;9.60;99.90;9.10;98624;;;;559955;255;24212;-77
2022/09/17 05:08:08;;;;;;;4.40;2.17;;;9.80;99.90;9.20;98621;;;;560109;255;24181;-75
2022/09/17 05:10:39;;;;;;;1.70;1.60;;;9.70;99.90;9.30;98633;;;;559885;252;25230;-76
2022/09/17 05:13:04;;;;;;;2.10;1.93;;;9.80;99.90;9.40;98628;;;;552636;255;24219;-76
2022/09/17 05:15:32;;;;;;;2.07;1.87;;;9.90;99.90;9.60;98626;;;;559926;252;24199;-76
2022/09/17 05:18:01;;;;;;;4.87;2.00;;;10.10;99.90;9.70;98634;;;;554487;255;24168;-75
2022/09/17 05:20:30;;;;;;;2.50;1.90;;;10.20;99.90;9.90;98640;;;;553705;255;24139;-76
2022/09/17 05:22:58;;;;;;;2.93;1.90;;;10.40;99.90;10.30;98639;;;;561643;254;24181;-75
2022/09/17 05:25:26;;;;;;;2.30;1.80;;;10.80;99.90;11.10;98647;;;;553220;255;24157;-76
2022/09/17 05:27:55;;;;;;;2.20;2.00;;;12.60;99.90;12.40;98658;;;;555257;252;24173;-76
2022/09/17 05:30:23;;;;;;;2.33;2.13;;;12.60;99.90;14.40;98658;;;;552797;255;24212;-76
2022/09/17 05:32:51;;;;;;;2.40;1.10;;;14.40;99.90;15.80;98656;;;;553165;255;24173;-77
2022/09/17 05:35:19;;;;;;;2.30;1.50;;;15.90;99.90;17.10;98661;;;;552242;255;24163;-77
2022/09/17 05:37:47;;;;;;;1.10;1.10;;;17.30;99.90;18.20;98665;;;;561770;255;24139;-78
2022/09/17 05:40:15;;;;;;;1.07;0.80;;;19.60;99.90;19.50;98664;;;;553497;255;24261;-77
2022/09/17 05:42:47;;;;;;;1.30;1.20;;;21.10;99.90;21.00;98661;;;;553749;255;24212;-78
2022/09/17 05:45:15;;;;;;;1.10;1.10;;;22.50;99.90;22.50;98663;;;;553650;255;24218;-77
2022/09/17 05:47:44;;;;;;;1.50;1.00;;;22.50;99.90;23.80;98661;;;;561091;255;23236;-78
2022/09/17 05:50:12;;;;;;;2.47;0.83;;;23.80;99.90;24.40;98669;;;;561714;251;24088;-78
2022/09/17 05:52:39;;;;;;;0.60;0.60;;;24.70;97.30;25.10;98670;;;;554135;255;24186;-77
2022/09/17 05:55:07;;;;;;;0.90;0.90;;;25.30;94.00;25.90;98667;;;;561991;251;24138;-79
2022/09/17 05:57:39;;;;;;;0.90;0.90;;;26.90;86.20;26.60;98675;;;;554382;255;23113;-79
2022/09/17 06:00:13;;;;;;;2.87;0.90;;;26.80;86.10;27.60;98685;;;;554253;255;23154;-78
2022/09/17 06:02:38;;;;;;;1.10;1.00;;;27.70;79.80;28.10;98685;;;;561527;252;23149;-79
2022/09/17 06:05:12;;;;;;;0.80;0.80;;;28.40;74.90;28.30;98687;;;;553564;255;23158;-78
2022/09/17 06:07:40;;;;;;;3.13;1.23;;;28.80;71.70;27.50;98684;;;;553774;255;23157;-77
2022/09/17 06:10:08;;;;;;;1.97;1.80;;;27.40;71.00;26.40;98678;;;;552070;256;23177;-77
2022/09/17 06:12:34;;;;;;;1.37;1.27;;;27.30;70.90;25.10;98679;;;;554062;255;24144;-77
2022/09/17 06:15:06;;;;;;;0.97;0.97;;;26.20;72.70;23.60;98684;;;;553871;255;23149;-77
2022/09/17 06:17:34;;;;;;;1.40;1.30;;;24.90;75.40;22.10;98696;;;;560890;253;24147;-77
2022/09/17 06:20:05;;;;;;;1.50;1.03;;;23.40;79.70;20.90;98689;;;;553804;255;24173;-77
2022/09/17 06:22:30;;;;;;;2.00;1.27;;;22.10;84.10;20.00;98690;;;;563872;255;24150;-77
2022/09/17 06:25:01;;;;;;;1.10;1.00;;;20.90;88.50;19.20;98687;;;;553307;255;24142;-76
2022/09/17 06:27:25;;;;;;;1.63;1.20;;;20.00;91.30;18.30;98694;;;;560725;253;24138;-77
2022/09/17 06:29:53;;;;;;;1.50;1.10;;;19.10;93.10;17.50;98699;;;;561479;255;24157;-82
2022/09/17 06:32:23;;;;;;;1.23;0.97;;;17.60;98.30;16.80;98703;;;;555344;255;24122;-76
2022/09/17 06:34:51;;;;;;;1.87;1.40;;;17.50;98.20;16.50;98710;;;;554262;255;24128;-76
2022/09/17 06:37:23;;;;;;;3.50;1.40;;;17.10;99.90;16.20;98702;;;;554106;255;24154;-76
2022/09/17 06:39:48;;;;;;;2.40;1.07;;;16.70;99.90;16.00;98706;;;;557203;255;24209;-81
2022/09/17 06:42:17;;;;;;;1.20;1.20;;;16.50;99.90;15.70;98709;;;;554930;255;24128;-76
2022/09/17 06:44:46;;;;;;;4.20;1.50;;;16.20;99.90;15.40;98710;;;;553929;255;24163;-76
2022/09/17 06:47:16;;;;;;;1.20;1.10;;;15.80;99.90;15.30;98714;;;;553460;255;24136;-76
2022/09/17 06:49:44;;;;;;;1.43;1.33;;;15.80;99.90;15.40;98710;;;;553299;255;24139;-75
2022/09/17 06:52:12;;;;;;;1.57;1.17;;;15.80;99.90;15.50;98717;;;;552804;255;24153;-76
2022/09/17 06:54:41;;;;;;;2.00;1.53;;;15.90;99.90;15.60;98724;;;;552817;255;24163;-75
2022/09/17 06:57:12;;;;;;;2.73;1.13;;;16.00;99.90;15.70;98726;;;;552771;255;24230;-77
2022/09/17 06:59:41;;;;;;;1.50;1.40;;;16.10;99.90;15.80;98730;;;;553077;255;24336;-76
2022/09/17 07:02:10;;;;;;;2.83;1.50;;;16.30;99.90;16.00;98715;;;;548019;255;35525;-76
2022/09/17 07:04:39;;;;;;;1.70;1.20;;;16.50;99.90;16.10;98716;;;;553176;255;24218;-77
2022/09/17 07:07:08;;;;;;;4.47;1.40;;;16.40;99.90;16.30;98715;;;;553134;255;24155;-77
2022/09/17 07:09:35;;;;;;;1.43;1.30;;;16.70;99.90;16.60;98724;;;;552973;255;24154;-76
2022/09/17 07:12:03;;;;;;;2.30;1.40;;;17.00;99.90;16.50;98731;;;;561425;252;24187;-76
2022/09/17 07:14:31;;;;;;;1.03;1.03;;;17.00;99.90;16.40;98727;;;;561427;251;24241;-75
2022/09/17 07:16:59;;;;;;;1.53;1.07;;;17.00;99.90;16.20;98730;;;;553679;255;24154;-75
2022/09/17 07:19:28;;;;;;;4.20;1.30;;;16.80;99.90;16.00;98731;;;;554166;255;24103;-77
2022/09/17 07:21:57;;;;;;;1.20;1.10;;;16.60;99.90;15.90;98729;;;;554164;255;24137;-76
2022/09/17 07:24:25;;;;;;;1.17;1.00;;;16.50;99.90;15.80;98742;;;;553847;255;24277;-81
2022/09/17 07:26:56;;;;;;;1.40;1.30;;;16.30;99.90;15.70;98740;;;;562040;255;24178;-80
2022/09/17 07:29:27;;;;;;;1.57;1.47;;;16.20;99.90;15.70;98746;;;;553953;255;24140;-77
2022/09/17 07:31:57;;;;;;;1.30;1.20;;;16.20;99.90;15.70;98745;;;;551717;255;24171;-78
2022/09/17 07:34:27;;;;;;;1.20;1.10;;;16.20;99.90;15.80;98752;;;;553353;255;24148;-77
2022/09/17 07:36:52;;;;;;;3.40;1.20;;;16.20;99.90;16.00;98753;;;;553070;255;24161;-76
2022/09/17 07:39:22;;;;;;;1.33;1.30;;;16.40;99.90;16.10;98762;;;;561309;252;24250;-76
2022/09/17 07:41:51;;;;;;;0.87;0.87;;;16.50;99.90;16.70;98755;;;;553582;255;24178;-75
2022/09/17 07:44:20;;;;;;;3.70;1.47;;;16.80;99.90;18.80;98761;;;;554662;253;24177;-77
2022/09/17 07:46:47;;;;;;;2.57;1.10;;;18.60;99.90;21.20;98763;;;;554358;255;24154;-76
2022/09/17 07:49:15;;;;;;;2.60;1.27;;;20.70;99.90;24.20;98767;;;;561400;255;24194;-77
2022/09/17 07:51:43;;;;;;;1.77;1.10;;;23.60;99.90;26.80;98776;;;;554370;255;24142;-76
2022/09/17 07:54:12;;;;;;;0.80;0.80;;;26.40;95.00;29.10;98774;;;;554497;255;24136;-77
2022/09/17 07:56:43;;;;;;;0.80;0.80;;;28.90;83.30;30.80;98783;;;;553819;255;23143;-78
2022/09/17 07:59:09;;;;;;;1.03;0.80;;;30.80;72.10;31.50;98787;;;;553548;255;24155;-77
2022/09/17 08:01:37;;;;;;;1.65;1.00;;;32.00;64.10;31.60;98781;;;;561862;250;23120;-76
2022/09/17 08:04:05;;;;;;;0.88;0.88;;;32.80;58.10;32.40;98786;;;;560733;252;23239;-76
2022/09/17 08:06:33;;;;;;;2.30;1.17;;;32.80;58.00;33.10;98787;;;;560464;252;23173;-77
2022/09/17 08:09:02;;;;;;;0.75;0.62;;;34.40;54.80;34.10;98802;;;;552920;255;23216;-77
2022/09/17 08:11:33;;;;;;;1.05;1.00;;;35.30;52.40;34.80;98795;;;;561157;255;23152;-77
2022/09/17 08:14:03;;;;;;;1.05;0.88;;;35.20;52.30;33.50;98792;;;;553281;255;23208;-76
2022/09/17 08:16:32;;;;;;;1.33;0.90;;;34.70;52.50;32.10;98803;;;;554033;255;23216;-76
2022/09/17 08:19:00;;;;;;;1.50;1.40;;;33.60;53.20;30.40;98812;;;;553283;255;23150;-75
2022/09/17 08:21:28;;;;;;;0.95;0.93;;;32.20;54.50;28.80;98807;;;;553009;255;23150;-76
2022/09/17 08:23:56;;;;;;;1.08;0.90;;;30.60;56.50;27.40;98806;;;;553392;255;23192;-76
2022/09/17 08:26:27;;;;;;;1.17;1.07;;;29.10;58.90;26.40;98804;;;;553081;255;24191;-76
2022/09/17 08:28:55;;;;;;;1.00;1.00;;;27.90;61.40;25.60;98808;;;;553681;255;23217;-78
2022/09/17 08:31:20;;;;;;;1.20;1.20;;;26.80;65.40;26.00;98818;;;;561229;253;24187;-76
2022/09/17 08:33:50;;;;;;;1.37;1.27;;;26.60;67.00;26.50;98822;;;;561700;255;23158;-77
2022/09/17 08:36:26;;;;;;;;;;;;;;;;;;;;;
2022/09/17 08:41:23;;;;;;;1.00;1.00;;;26.50;68.00;25.50;98826;;;;561554;256;23184;-87
2022/09/17 08:43:54;;;;;;;1.83;1.10;;;26.10;68.40;25.60;98837;;;;565086;250;23108;-87
2022/09/17 08:46:21;;;;;;;2.80;1.60;;;26.10;69.60;26.70;98838;;;;573480;250;23105;-86
2022/09/17 08:49:20;;;;;;;1.30;1.20;;;26.80;69.40;27.80;98842;;;;573567;245;23098;-85
2022/09/17 08:52:17;;;;;;;1.30;1.20;;;27.90;66.80;29.40;98853;;;;572308;250;24098;-88
2022/09/17 08:54:51;;;;;;;2.80;1.40;;;29.50;63.60;29.70;98844;;;;561955;249;23107;-86
2022/09/17 08:57:29;;;;;;;2.15;1.10;;;30.20;60.80;30.60;98842;;;;566749;249;23122;-87
2022/09/17 08:59:55;;;;;;;1.85;1.20;;;30.90;59.70;30.40;98829;;;;573842;249;23197;-88
2022/09/17 09:03:06;;;;;;;1.33;1.17;;;31.30;57.80;30.90;98845;;;;569461;248;23072;-89
2022/09/17 09:05:42;;;;;;;2.22;1.30;;;31.60;57.50;31.90;98840;;;;571278;248;23206;-87
2022/09/17 09:08:22;;;;;;;1.83;1.27;;;32.40;56.00;32.10;98851;;;;567686;247;23082;-86
2022/09/17 09:10:54;;;;;;;1.33;1.23;;;32.90;54.70;31.80;98848;;;;572485;247;23098;-87
2022/09/17 09:13:21;;;;;;;1.20;1.20;;;32.80;54.70;32.80;98843;;;;568328;248;23114;-87
2022/09/17 09:16:06;;;;;;;1.60;1.20;;;33.50;54.10;33.50;98852;;;;566699;247;23069;-86
2022/09/17 09:18:34;;;;;;;2.45;1.20;;;34.40;52.30;32.10;98846;;;;567956;247;23089;-87
2022/09/17 09:21:22;;;;;;;2.03;1.27;;;33.70;52.40;31.30;98842;;;;553123;255;23219;-87
2022/09/17 09:24:05;;;;;;;2.83;1.30;;;32.80;53.10;30.20;98837;;;;568421;244;23056;-85
2022/09/17 09:26:45;;;;;;;1.10;1.10;;;31.70;54.30;31.10;98841;;;;577388;248;23163;-82
2022/09/17 09:29:41;;;;;;;1.52;0.98;;;31.80;55.10;31.50;98837;;;;569714;246;23127;-86
2022/09/17 09:32:39;;;;;;;3.80;1.17;;;32.30;53.90;31.60;98845;;;;551576;254;23134;-84
2022/09/17 09:35:28;;;;;;;1.40;1.20;;;32.50;54.00;32.30;98840;;;;564882;253;23090;-81
2022/09/17 09:38:20;;;;;;;1.00;1.00;;;33.00;53.10;33.70;98842;;;;548210;255;23118;-82
2022/09/17 09:41:09;;;;;;;2.75;1.48;;;34.30;52.10;35.00;98839;;;;584627;238;23023;-86
2022/09/17 09:43:46;;;;;;;1.60;1.40;;;35.80;50.60;35.70;98844;;;;596052;238;23046;-85
2022/09/17 09:46:37;;;;;;;1.25;1.12;;;36.90;47.30;35.00;98850;;;;591778;238;24046;-87
2022/09/17 09:49:15;;;;;;;1.50;1.40;;;36.80;47.30;33.90;98852;;;;602839;238;23085;-85
2022/09/17 09:52:07;;;;;;;2.40;1.48;;;35.90;48.00;32.90;98845;;;;592873;238;23060;-86
2022/09/17 09:54:54;;;;;;;1.83;1.60;;;35.00;48.40;31.30;98840;;;;594273;238;23060;-86
2022/09/17 09:57:35;;;;;;;1.35;1.00;;;33.00;51.90;31.10;98835;;;;577967;247;23103;-85
2022/09/17 10:00:36;;;;;;;1.83;1.27;;;32.90;51.80;30.20;98838;;;;568784;248;23130;-84
2022/09/17 10:03:13;;;;;;;1.75;1.40;;;32.20;52.60;29.00;98846;;;;561409;253;24202;-85
2022/09/17 10:05:41;;;;;;;3.72;1.60;;;31.00;54.20;27.80;98838;;;;547917;254;23135;-83
2022/09/17 10:08:18;;;;;;;4.72;1.20;;;29.70;56.20;27.00;98840;;;;564336;248;35115;-84
2022/09/17 10:11:00;;;;;;;1.10;1.00;;;28.60;58.10;26.60;98839;;;;569057;248;23097;-84
2022/09/17 10:13:31;;;;;;;2.20;1.15;;;28.00;59.40;26.60;98845;;;;563794;248;35364;-84
2022/09/17 10:16:18;;;;;;;1.30;1.20;;;27.60;60.30;26.10;98844;;;;568420;248;23190;-83
2022/09/17 10:18:52;;;;;;;2.60;0.80;;;27.10;60.90;25.40;98851;;;;573859;248;24103;-83
2022/09/17 10:21:22;;;;;;;0.83;0.83;;;26.40;62.20;25.00;98841;;;;568784;248;24108;-87
2022/09/17 10:23:50;;;;;;;0.87;0.87;;;25.90;64.20;24.70;98834;;;;577063;246;24119;-83
2022/09/17 10:26:29;;;;;;;1.33;0.70;;;25.50;65.40;24.20;98836;;;;573964;248;24107;-84
2022/09/17 10:29:03;;;;;;;1.03;1.00;;;25.00;66.40;24.00;98830;;;;568276;248;24165;-87
2022/09/17 10:31:51;;;;;;;1.60;1.03;;;24.60;68.20;23.70;98829;;;;574385;248;24083;-87
2022/09/17 10:34:22;;;;;;;0.93;0.80;;;24.30;68.90;23.30;98833;;;;560270;251;24164;-85
2022/09/17 10:36:54;;;;;;;2.70;1.00;;;23.40;71.60;22.80;98844;;;;574954;248;24162;-84
2022/09/17 10:39:25;;;;;;;1.07;0.80;;;23.40;70.80;22.50;98845;;;;568364;248;24098;-85
2022/09/17 10:41:56;;;;;;;2.43;1.10;;;23.10;72.30;22.30;98848;;;;574364;248;23096;-85
2022/09/17 10:44:23;;;;;;;4.20;0.93;;;22.80;73.20;22.10;98848;;;;568888;248;24163;-85
2022/09/17 10:46:51;;;;;;;1.83;0.80;;;22.50;74.30;21.90;98855;;;;565059;248;24092;-84
2022/09/17 10:49:37;;;;;;;1.40;0.77;;;22.30;75.50;21.90;98849;;;;574164;248;24114;-84
2022/09/17 10:52:26;;;;;;;2.60;0.70;;;22.30;76.40;21.80;98841;;;;577087;248;24187;-84
2022/09/17 10:55:22;;;;;;;3.33;0.87;;;22.20;75.60;21.40;98848;;;;567889;248;24097;-85
2022/09/17 10:58:08;;;;;;;0.73;0.73;;;22.00;76.60;20.90;98849;;;;573512;248;24132;-84
2022/09/17 11:00:51;;;;;;;1.13;0.83;;;21.50;77.50;20.50;98858;;;;573301;248;24116;-84
2022/09/17 11:03:24;;;;;;;0.97;0.80;;;21.10;79.30;20.10;98858;;;;573122;248;24165;-84
2022/09/17 11:06:26;;;;;;;1.07;0.40;;;20.70;81.20;19.40;98869;;;;572563;248;24103;-85
2022/09/17 11:09:30;;;;;;;0.90;0.50;;;20.10;80.80;18.70;98883;;;;573123;248;24119;-85
2022/09/17 11:11:58;;;;;;;2.20;0.70;;;19.40;79.30;17.90;98889;;;;574145;248;24072;-83
2022/09/17 11:14:50;;;;;;;1.97;1.23;;;17.90;87.50;17.10;98883;;;;573634;248;24111;-83
2022/09/17 11:17:39;;;;;;;2.53;2.03;;;17.80;87.40;16.30;98886;;;;574317;247;24085;-86
2022/09/17 11:20:29;;;;;;;2.03;1.87;;;16.40;93.70;15.60;98887;;;;574905;248;24091;-83
2022/09/17 11:23:33;;;;;;;1.03;0.73;;;16.30;93.60;15.20;98885;;;;568964;248;24212;-84
2022/09/17 11:26:19;;;;;;;2.60;1.07;;;15.90;98.20;14.90;98883;;;;574968;248;24088;-83
2022/09/17 11:29:23;;;;;;;0.70;0.70;;;15.40;99.90;14.70;98884;;;;574087;248;24079;-84
2022/09/17 11:32:06;;;;;;;1.70;0.80;;;15.20;99.90;14.70;98887;;;;574524;248;24090;-85
2022/09/17 11:34:45;;;;;;;0.87;0.70;;;15.20;99.90;14.90;98872;;;;573410;248;24139;-84
2022/09/17 11:37:28;;;;;;;1.23;0.90;;;15.30;99.90;15.10;98877;;;;573261;248;24101;-83
2022/09/17 11:40:11;;;;;;;0.70;0.70;;;15.60;99.90;15.50;98878;;;;568883;248;24104;-84
2022/09/17 11:42:45;;;;;;;0.77;0.73;;;15.90;99.90;16.00;98871;;;;574216;248;24172;-84
2022/09/17 11:45:22;;;;;;;0.97;0.70;;;16.90;99.90;16.50;98869;;;;573842;248;24097;-84
2022/09/17 11:48:08;;;;;;;1.93;0.80;;;16.90;99.90;17.00;98863;;;;568363;248;24091;-84
2022/09/17 11:50:43;;;;;;;2.13;0.90;;;17.80;99.90;17.20;98856;;;;574086;248;24107;-84
2022/09/17 11:53:22;;;;;;;1.40;0.97;;;17.70;99.90;17.30;98862;;;;576900;247;24252;-84